Flight Track Log - Related Links

Times and Time Zones

All times are in EDT time to prevent confusion due to time zone crossing. See the SWA1821 flight status page for this flight to view local times or setup timezone preferences in your user account.

Time Position Orientation Groundspeed Altitude Reporting Facility
EDT Latitude Longitude Course Direction KTS MPH feet Rate Location/Type
Sun 09:43:38 AM 36.1333 -86.6500 39° Northeast 153 176 1,300  Level Nashville TRACON
Sun 09:44:20 AM 36.1667 -86.6167 39° Northeast 180 207 2,400 1,529 Climbing Nashville TRACON
Sun 09:45:20 AM 36.1833 -86.5667 68° East 230 265 3,900 1,600 Climbing Nashville TRACON
Sun 09:46:20 AM 36.2000 -86.4833 76° East 256 295 5,600 2,706 Climbing Nashville TRACON
Sun 09:47:02 AM 36.1917 -86.4144 99° East 267 307 8,500 3,588 Climbing Memphis Center
Sun 09:48:02 AM 36.1928 -86.3194 89° East 275 316 11,700 2,650 Climbing Memphis Center
Sun 09:49:02 AM 36.1975 -86.2058 87° East 305 351 13,800 2,650 Climbing Memphis Center
Sun 09:50:02 AM 36.2036 -86.0822 86° East 346 398 17,000 2,950 Climbing Memphis Center
Sun 09:51:02 AM 36.2475 -85.9617 66° East 363 418 19,700 2,350 Climbing Memphis Center
Sun 09:52:02 AM 36.2956 -85.8533 61° Northeast 384 442 21,700 2,222 Climbing Memphis Center
Sun 09:53:17 AM 36.3747 -85.6900 59° Northeast 415 478 24,700 2,102 Climbing Indianapolis Center
Sun 09:54:19 AM 36.4347 -85.5606 60° Northeast 428 493 26,500 1,597 Climbing Indianapolis Center
Sun 09:55:21 AM 36.4981 -85.4267 59° Northeast 444 511 28,000 1,548 Climbing Indianapolis Center
Sun 09:56:23 AM 36.5633 -85.2889 59° Northeast 457 526 29,700 1,694 Climbing Indianapolis Center
Sun 09:57:25 AM 36.6244 -85.1503 61° Northeast 458 527 31,500 1,805 Climbing Indianapolis Center
Sun 09:58:26 AM 36.6689 -85.0044 69° East 450 518 33,400 1,854 Climbing Indianapolis Center
Sun 09:59:28 AM 36.7133 -84.8594 69° East 446 513 35,300 1,935 Climbing Indianapolis Center
Sun 10:00:30 AM 36.7647 -84.6894 69° East 435 501 37,400 1,694 Climbing Indianapolis Center
Sun 10:01:32 AM 36.8061 -84.5511 69° East 425 489 38,800 774 Climbing Indianapolis Center
Sun 10:02:34 AM 36.8500 -84.4089 69° East 430 495 39,000 97 Climbing Indianapolis Center
Sun 10:03:36 AM 36.8917 -84.2681 70° East 434 499 39,000  Level Indianapolis Center
Sun 10:04:38 AM 36.9344 -84.1275 69° East 433 498 39,000  Level Indianapolis Center
Sun 10:05:40 AM 36.9758 -83.9878 70° East 427 491 39,000  Level Indianapolis Center
Sun 10:06:42 AM 37.0178 -83.8475 69° East 428 493 39,000  Level Indianapolis Center
Sun 10:07:44 AM 37.0678 -83.6828 69° East 431 496 39,000  Level Indianapolis Center
Sun 10:08:46 AM 37.1103 -83.5433 69° East 429 494 39,000  Level Indianapolis Center
Sun 10:09:48 AM 37.1528 -83.4022 69° East 432 497 39,000  Level Indianapolis Center
Sun 10:10:50 AM 37.1958 -83.2600 69° East 434 499 39,000  Level Indianapolis Center
Sun 10:11:52 AM 37.2381 -83.1164 70° East 435 501 39,000  Level Indianapolis Center
Sun 10:12:54 AM 37.2800 -82.9731 70° East 433 498 39,000  Level Indianapolis Center
Sun 10:13:56 AM 37.3222 -82.8297 70° East 434 499 39,000  Level Indianapolis Center
Sun 10:14:58 AM 37.3697 -82.6639 70° East 430 495 39,000  Level Indianapolis Center
Sun 10:16:00 AM 37.4111 -82.5222 70° East 429 494 39,000  Level Indianapolis Center
Sun 10:17:02 AM 37.4514 -82.3819 70° East 427 491 39,000  Level Indianapolis Center
Sun 10:18:03 AM 37.4922 -82.2414 70° East 427 491 39,000  Level Indianapolis Center
Sun 10:19:05 AM 37.5317 -82.1000 71° East 427 491 39,000  Level Indianapolis Center
Sun 10:20:07 AM 37.5725 -81.9589 70° East 428 493 39,000  Level Indianapolis Center
Sun 10:21:09 AM 37.6131 -81.8161 70° East 431 496 39,000  Level Indianapolis Center
Sun 10:22:11 AM 37.6589 -81.6486 71° East 433 498 39,000  Level Indianapolis Center
Sun 10:23:13 AM 37.6972 -81.5058 71° East 431 496 39,000  Level Indianapolis Center
Sun 10:24:14 AM 37.7322 -81.3817 70° East 430 495 39,000  Level Indianapolis Center
Sun 10:25:16 AM 37.7794 -81.2153 70° East 430 495 39,000  Level Indianapolis Center
Sun 10:26:18 AM 37.8169 -81.0761 71° East 430 495 39,000  Level Indianapolis Center
Sun 10:27:20 AM 37.8600 -80.9175 71° East 428 493 39,000  Level Indianapolis Center
Sun 10:28:22 AM 37.8983 -80.7750 71° East 430 495 39,000  Level Indianapolis Center
Sun 10:29:23 AM 37.9361 -80.6319 71° East 428 493 39,000  Level Indianapolis Center
Sun 10:30:25 AM 37.9736 -80.4900 71° East 429 494 39,000  Level Indianapolis Center
Sun 10:31:27 AM 38.0108 -80.3547 71° East 424 488 39,000 -339 Level Indianapolis Center
Sun 10:32:29 AM 38.0567 -80.1864 71° East 430 495 38,300 -780 Descending Indianapolis Center
Sun 10:33:30 AM 38.0931 -80.0447 72° East 431 496 37,400 -871 Descending Indianapolis Center
Sun 10:34:33 AM 38.1331 -79.9081 70° East 423 487 36,500 -893 Descending Washington Center
Sun 10:35:31 AM 38.1717 -79.7622 71° East 428 493 35,600 -966 Descending Washington Center
Sun 10:36:31 AM 38.2100 -79.6139 72° East 438 504 34,600 -992 Descending Washington Center
Sun 10:37:32 AM 38.2461 -79.4678 72° East 438 504 33,600 -1,091 Descending Washington Center
Sun 10:38:32 AM 38.2889 -79.3058 71° East 438 504 32,400 -1,339 Descending Washington Center
Sun 10:39:33 AM 38.3244 -79.1647 72° East 428 493 30,900 -1,686 Descending Washington Center
Sun 10:40:33 AM 38.3597 -79.0261 72° East 415 478 29,000 -1,932 Descending Washington Center
Sun 10:41:31 AM 38.3928 -78.8950 72° East 404 465 27,100 -1,008 Descending Washington Center
Sun 10:42:32 AM 38.4211 -78.7639 75° East 388 447 27,000 -50 Descending Washington Center
Sun 10:43:32 AM 38.4539 -78.6300 73° East 383 441 27,000  Level Washington Center
Sun 10:44:33 AM 38.4886 -78.4908 72° East 395 455 27,000 -99 Level Washington Center
Sun 10:45:33 AM 38.5208 -78.3569 73° East 395 455 26,800 -1,169 Descending Washington Center
Sun 10:46:31 AM 38.5531 -78.2225 73° East 395 455 24,700 -2,186 Descending Washington Center
Sun 10:47:31 AM 38.5853 -78.0908 73° East 395 455 22,500 -2,132 Descending Washington Center
Sun 10:48:32 AM 38.6169 -77.9564 73° East 390 449 20,400 -1,721 Descending Washington Center
Sun 10:49:33 AM 38.6425 -77.8217 76° East 390 449 19,000 -694 Descending Washington Center
Sun 10:50:33 AM 38.6511 -77.6917 85° East 384 442 19,000 -203 Level Washington Center
Sun 10:51:31 AM 38.6575 -77.5589 86° East 378 435 18,600 -1,017 Descending Washington Center
Sun 10:52:31 AM 38.6656 -77.4450 85° East 367 422 17,000 -1,258 Descending Washington Center
Sun 10:53:35 AM 38.6833 -77.3000 81° East 354 407 16,000 -1,533 Descending Potomac TRACON
Sun 10:55:35 AM 38.6833 -77.0500 90° East 337 388 12,300 -1,667 Descending Potomac TRACON
Sun 10:56:35 AM 38.7000 -76.9333 80° East 325 374 11,000 -1,148 Descending Potomac TRACON
Sun 10:57:30 AM 38.7000 -76.8333 90° East 309 356 10,100 -1,043 Descending Potomac TRACON
Sun 10:58:30 AM 38.7167 -76.7333 78° East 284 327 9,000 -1,100 Descending Potomac TRACON
Sun 10:59:30 AM 38.7500 -76.6500 63° Northeast 280 322 7,900 -1,250 Descending Potomac TRACON
Sun 11:00:30 AM 38.7833 -76.5667 63° Northeast 279 321 6,500 -1,350 Descending Potomac TRACON
Sun 11:01:30 AM 38.8500 -76.5000 38° Northeast 282 325 5,200 -1,158 Descending Potomac TRACON
Sun 11:02:24 AM 38.9167 -76.4667 21° North 284 327 4,300 -678 Descending Potomac TRACON
Sun 11:03:25 AM 38.9833 -76.4333 21° North 278 320 3,900 -700 Descending Potomac TRACON
Sun 11:04:24 AM 39.0667 -76.4167 North 279 321 2,900 -950 Descending Potomac TRACON
Sun 11:05:25 AM 39.1333 -76.4333 349° North 272 313 2,000 -446 Descending Potomac TRACON
Sun 11:06:25 AM 39.1500 -76.5000 288° West 214 246 2,000 -200 Level Potomac TRACON
Sun 11:07:25 AM 39.1667 -76.5667 288° West 159 183 1,600 -600 Descending Potomac TRACON
Sun 11:08:25 AM 39.1667 -76.6167 270° West 141 162 800 -800 Descending Potomac TRACON
Sun 11:10:00 AM 39.1667 -76.6667 326° Northwest  Level FlightAware Approximate
Sun 11:17:00 AM 39.1754 -76.6683 326° Northwest  Level Estimated
Sun 11:18:00 AM 39.1754 -76.6683 326° Northwest  Level Estimated
Sun 11:19:00 AM 39.1754 -76.6683 326° Northwest  Level Estimated
Sun 11:20:00 AM 39.1754 -76.6683 326° Northwest  Level Estimated

Login

Don't have an account? Register now (free) for customized features, flight alerts, and more!